Date,TemperatureHighF,TemperatureAvgF,TemperatureLowF,DewpointHighF,DewpointAvgF,DewpointLowF,HumidityHigh,HumidityAvg,HumidityLow,PressureMaxIn,PressureMinIn,WindSpeedMaxMPH,WindSpeedAvgMPH,GustSpeedMaxMPH,PrecipitationSumIn
2013-1-1,42.3,39.8,36.7,38.6,32.4,21.2,87,75,51,27.94,27.76,0,-978,1,0.33
2013-1-2,41.9,37.4,35.8,38.2,29.6,25.5,87,73,65,27.96,27.79,3,0,3,0.04
2013-1-3,44.3,36.2,31.8,27.4,23.0,16.2,75,59,39,28.08,27.94,3,1,4,0.00
2013-1-4,39.2,32.5,26.1,19.9,16.5,12.9,54,50,44,28.14,28.08,4,1,5,0.00
2013-1-5,46.6,35.1,23.4,22.7,17.9,11.5,58,48,37,28.17,28.02,2,-3,3,0.00
2013-1-6,39.4,37.3,35.4,31.1,27.8,21.9,77,69,52,28.05,27.91,3,1,6,0.00
2013-1-7,50.7,38.8,32.5,27.3,21.9,18.3,61,51,38,28.20,28.02,3,0,4,0.00
2013-1-8,56.9,40.3,29.5,27.0,20.5,16.5,55,45,29,28.20,28.11,3,0,3,0.00
2013-1-9,50.2,43.5,36.1,42.9,31.9,19.3,83,64,46,28.29,28.14,2,0,3,0.09
2013-1-10,61.5,52.3,43.3,45.5,41.7,37.5,84,68,52,28.29,28.11,2,0,3,0.00
2013-1-11,59.5,55.1,50.7,54.6,46.2,36.6,87,73,51,28.11,27.91,2,0,4,0.12
2013-1-12,68.8,59.2,51.3,62.2,54.7,47.4,97,85,70,28.02,27.88,4,0,4,0.04
2013-1-13,69.0,57.2,47.1,53.5,48.3,42.2,86,73,52,27.94,27.82,2,0,3,0.12
2013-1-14,58.5,50.4,41.3,54.8,46.0,36.3,90,85,81,28.08,27.91,4,0,4,1.29
2013-1-15,47.3,45.2,41.4,45.4,42.6,36.5,94,91,82,28.02,27.79,2,0,3,1.99
2013-1-16,54.0,49.1,46.2,53.4,47.5,42.4,99,94,87,27.88,27.76,3,0,4,0.70
2013-1-17,46.6,39.0,32.2,42.7,34.0,26.1,87,82,75,28.08,27.79,2,0,3,0.54
2013-1-18,38.8,31.4,25.1,26.6,22.6,16.4,78,68,58,28.26,28.08,2,0,3,0.00
2013-1-19,46.8,32.7,22.6,29.2,21.2,13.4,69,62,47,28.20,27.96,3,0,3,0.08
2013-1-20,50.1,38.9,29.8,30.0,24.7,20.5,68,57,43,27.99,27.91,5,1,8,0.29
2013-1-21,45.0,35.3,28.0,23.6,16.1,4.9,63,46,29,27.91,27.82,6,2,9,0.00
2013-1-22,31.7,24.9,19.9,5.0,0.5,-3.6,34,30,25,28.05,27.91,5,2,9,0.00
2013-1-23,38.4,28.3,20.1,13.3,4.8,-3.7,42,34,27,28.08,27.88,4,2,6,0.00
2013-1-24,36.1,29.1,21.2,17.4,7.9,-0.3,46,37,31,28.20,27.85,5,2,6,0.00
2013-1-25,32.5,26.7,21.0,25.8,12.8,-0.5,76,53,34,28.14,27.88,3,1,4,0.05
2013-1-26,35.8,33.3,30.9,26.9,24.0,21.0,77,68,62,28.14,27.94,3,1,4,0.04
2013-1-27,44.3,34.8,26.2,26.4,20.9,16.4,65,56,46,28.23,28.14,2,0,3,0.04
2013-1-28,62.6,47.5,36.9,41.8,32.4,22.6,71,56,44,28.17,28.02,5,1,5,0.04
2013-1-29,69.2,55.1,45.0,49.2,42.7,37.9,81,64,41,28.05,27.82,3,0,6,0.04
2013-1-30,65.2,57.4,45.4,57.1,51.2,41.7,100,82,58,27.82,27.34,5,1,8,1.95
2013-1-31,45.3,34.5,30.6,45.3,21.1,14.7,100,58,43,27.79,27.34,7,2,10,0.00
2013-2-1,34.9,24.9,17.4,24.1,9.7,1.9,72,49,40,28.11,27.70,6,2,10,0.00
2013-2-2,30.9,25.9,19.9,22.9,13.0,5.1,72,54,41,28.11,27.85,5,1,8,0.00
2013-2-3,34.3,31.7,29.1,28.5,24.6,17.6,79,73,58,27.91,27.73,5,2,9,0.00
2013-2-4,38.8,29.1,16.4,20.9,15.2,4.8,61,54,44,27.94,27.76,2,0,3,0.04
2013-2-5,47.2,38.3,33.7,33.6,26.6,20.7,70,63,57,27.82,27.76,3,1,6,0.04
2013-2-6,54.9,41.6,33.6,31.1,26.1,19.3,73,55,35,28.02,27.82,4,1,6,0.00
2013-2-7,50.2,43.4,36.0,31.3,25.7,19.5,64,50,43,28.02,27.82,3,0,4,0.00
2013-2-8,51.6,41.6,35.4,42.5,29.2,20.0,78,62,44,28.02,27.73,7,2,10,0.04
2013-2-9,52.4,38.7,28.9,23.7,18.1,14.2,54,43,28,28.11,28.02,3,1,5,0.00
2013-2-10,60.7,45.9,33.9,34.2,19.6,13.7,53,37,19,28.11,27.85,3,1,4,0.17
2013-2-11,54.3,50.0,44.6,45.7,38.6,27.6,79,65,50,27.91,27.82,4,1,7,0.04
2013-2-12,53.5,44.1,35.4,27.5,22.6,18.2,51,43,32,27.96,27.73,4,1,5,0.00
2013-2-13,45.5,41.5,36.7,38.7,31.5,26.1,78,68,50,27.73,27.46,4,1,6,0.33
2013-2-14,50.7,39.4,32.8,28.3,23.9,19.5,68,55,39,27.88,27.73,4,1,5,0.00
2013-2-15,54.5,38.9,30.1,32.3,25.4,19.5,69,58,38,27.91,27.79,6,1,9,0.09
2013-2-16,35.8,33.1,27.7,26.4,20.3,12.9,69,59,44,27.88,27.73,5,1,8,0.04
2013-2-17,33.6,29.4,25.5,8.3,7.2,4.9,41,35,31,28.02,27.94,4,1,6,0.00
2013-2-18,56.4,38.3,22.5,26.9,15.4,6.4,49,38,30,28.08,27.85,4,1,6,0.00
2013-2-19,47.2,41.5,33.9,34.0,20.7,8.1,70,45,29,27.88,27.70,7,2,8,0.08
2013-2-20,43.9,34.4,27.1,12.9,9.2,5.8,42,33,25,27.99,27.88,5,2,8,0.00
2013-2-21,51.7,37.1,22.8,21.9,12.2,6.5,46,35,24,28.02,27.91,2,0,4,0.09
2013-2-22,55.1,44.3,38.3,36.3,29.6,21.9,64,56,46,27.96,27.85,2,1,3,0.20
2013-2-26,49.2,44.4,35.1,38.4,33.0,25.6,74,64,57,27.64,27.37,4,1,6,0.25
2013-2-27,45.0,39.7,36.8,29.4,27.1,25.0,67,60,52,27.64,27.46,5,2,7,0.04
2013-2-28,36.9,34.3,32.5,26.3,21.8,18.9,69,60,51,27.73,27.55,6,2,8,0.00
2013-3-1,38.0,34.9,32.2,29.8,25.9,23.3,76,70,60,27.76,27.70,3,1,4,0.05
2013-3-2,37.2,32.9,27.1,24.5,19.7,13.5,65,57,51,27.79,27.67,7,2,8,0.03
2013-3-3,31.8,27.6,24.3,17.5,13.9,11.6,57,52,45,27.85,27.76,6,2,8,0.00
2013-3-4,49.8,35.4,25.3,20.4,14.7,11.0,51,41,28,27.96,27.85,4,1,5,0.00
2013-3-5,44.6,39.9,34.8,37.8,26.1,17.2,79,59,43,27.85,27.49,6,1,11,0.46
2013-3-6,34.6,30.2,27.1,26.3,22.9,19.1,76,72,61,27.99,27.55,6,2,10,0.00
2013-3-7,34.8,32.8,30.2,23.2,21.5,19.3,68,62,55,28.11,27.96,3,1,4,0.04
2013-3-8,48.0,37.7,32.2,25.3,20.5,17.4,56,50,39,28.17,28.05,5,1,6,0.00
2013-3-9,67.6,45.8,29.8,30.7,22.6,17.3,58,42,19,28.11,28.02,2,0,4,0.00
2013-3-10,69.9,56.3,45.9,30.9,25.3,21.9,39,31,23,28.02,27.91,3,0,4,0.00
2013-3-11,58.6,54.9,50.2,43.8,35.1,22.3,77,49,27,27.94,27.64,5,1,6,0.58
2013-3-12,51.1,45.1,38.2,44.4,33.6,22.6,80,65,47,27.88,27.64,4,1,6,0.21
2013-3-13,40.3,35.5,29.6,24.1,18.9,11.7,61,50,40,28.02,27.85,6,2,8,0.00
2013-3-14,46.3,34.7,26.4,16.3,12.3,9.5,46,38,28,28.11,27.99,5,2,6,0.00
2013-3-15,58.2,43.4,29.3,30.7,21.3,11.7,50,41,35,28.02,27.76,4,1,7,0.00
2013-3-16,69.8,55.2,42.2,57.8,40.8,25.3,100,62,35,27.76,27.58,7,1,9,0.21
2013-3-17,57.9,52.1,45.0,54.8,46.7,36.5,100,82,68,27.85,27.73,3,0,4,0.12
2013-3-18,56.8,45.2,38.8,41.7,36.1,30.5,80,71,54,27.82,27.67,3,0,4,0.87
2013-3-19,56.1,45.5,38.7,41.4,25.4,6.0,84,51,21,27.91,27.67,6,2,10,0.08
2013-3-20,52.3,41.0,31.6,16.6,9.8,3.4,45,28,21,27.91,27.67,5,2,7,0.00
2013-3-21,35.3,29.1,23.6,13.7,7.1,3.5,43,36,31,27.79,27.67,5,2,8,0.00
2013-3-22,47.3,32.8,20.1,15.8,9.1,4.0,46,36,27,27.88,27.79,4,1,6,0.00
2013-3-23,52.3,43.0,38.4,28.1,19.7,10.4,51,39,30,27.85,27.70,2,0,4,0.00
2013-3-24,45.3,42.7,39.2,36.0,31.3,24.8,76,65,47,27.70,27.32,4,0,4,0.87
2013-3-25,39.1,33.7,30.5,32.0,25.1,20.0,78,69,60,27.70,27.34,6,2,13,0.17
2013-3-26,37.4,32.9,30.2,27.1,24.1,21.5,74,69,59,27.99,27.70,5,2,7,0.08
2013-3-27,41.4,34.8,31.3,24.2,19.2,14.7,71,53,41,28.08,27.99,5,2,7,0.00
2013-3-28,50.7,38.1,30.1,23.7,17.8,14.7,51,44,30,28.11,28.02,5,1,7,0.00
2013-3-29,54.2,40.3,28.3,27.9,20.3,15.1,57,45,27,28.14,28.02,6,1,7,0.00
2013-3-30,60.1,47.2,33.7,35.1,28.9,21.7,69,50,34,28.05,27.88,5,1,6,0.00
2013-3-31,58.3,50.5,46.4,48.6,41.5,30.0,83,72,49,27.88,27.67,6,1,8,0.34
2013-4-1,55.9,49.5,43.5,45.9,38.2,24.6,84,67,39,27.88,27.73,7,2,8,0.04
2013-4-2,54.3,43.0,34.4,24.5,18.2,11.6,52,38,26,27.99,27.88,4,1,6,0.00
2013-4-3,55.8,42.8,31.9,20.9,13.6,8.6,41,31,22,28.11,27.99,2,0,3,0.00
2013-4-4,43.5,38.7,35.4,29.0,17.6,8.4,71,45,25,28.08,27.82,3,0,3,0.74
2013-4-5,58.5,45.1,37.2,39.5,33.2,29.0,78,64,45,27.94,27.79,4,0,4,0.17
2013-4-6,69.3,52.6,35.8,35.4,29.4,24.2,69,45,24,28.02,27.91,2,0,4,0.00
2013-4-7,70.0,57.0,42.9,37.7,30.4,24.0,51,37,26,28.02,27.91,6,1,8,0.00
2013-4-8,76.6,60.9,45.1,44.3,38.4,31.1,63,45,31,27.99,27.88,5,1,6,0.00
2013-4-9,80.1,64.3,49.7,47.9,42.8,37.1,69,48,30,28.05,27.91,4,1,6,0.00
2013-4-10,83.6,67.3,53.4,52.5,46.4,41.6,73,49,28,27.99,27.79,5,1,6,0.00
2013-4-11,82.0,66.5,54.6,54.0,46.5,42.5,70,51,30,27.82,27.58,3,0,4,0.29
2013-4-12,64.4,59.0,52.2,54.0,45.6,29.6,82,63,37,27.79,27.49,5,1,7,0.58
2013-4-13,68.4,55.5,42.6,36.6,30.5,24.6,61,40,23,27.91,27.79,5,1,6,0.00
2013-4-14,74.1,58.3,40.8,38.2,30.9,25.5,55,38,22,27.94,27.85,4,0,4,0.00
2013-4-15,68.9,59.7,54.3,49.4,44.5,37.2,67,58,44,28.02,27.85,3,0,5,0.08
2013-4-16,80.5,65.7,52.6,53.4,47.7,44.0,77,55,31,28.11,27.99,3,0,6,0.00
2013-4-17,66.4,61.3,57.8,61.3,57.0,47.1,100,87,55,28.14,27.96,3,0,4,1.20
2013-4-18,77.4,67.2,55.7,58.9,51.6,44.3,84,60,34,27.96,27.76,3,1,5,0.00
2013-4-19,69.6,60.8,45.8,54.5,46.7,29.7,79,60,49,27.82,27.55,5,1,10,0.34
2013-4-20,59.2,47.6,37.8,29.9,24.7,19.8,54,42,25,28.11,27.82,5,2,7,0.00
2013-4-21,62.8,49.9,36.6,30.0,24.5,20.2,51,38,25,28.23,28.11,3,0,4,0.00
2013-4-22,65.4,52.9,42.1,33.7,26.7,20.7,50,37,24,28.20,28.02,2,0,4,0.00
2013-4-23,72.0,56.8,43.3,37.3,27.7,18.1,44,33,23,28.08,27.91,3,0,4,0.00
2013-4-24,73.2,57.8,46.3,51.5,40.7,31.7,70,54,34,28.02,27.82,10,1,11,0.12
2013-4-25,65.2,51.2,40.6,37.4,29.8,24.3,64,45,27,28.14,28.02,4,-20,4,0.00
2013-4-26,66.8,53.8,38.8,33.6,27.2,22.7,56,37,21,28.23,28.14,3,0,4,0.00
2013-4-27,61.0,56.4,53.2,47.8,38.8,29.5,77,53,35,28.17,28.02,3,0,3,0.17
2013-4-28,57.3,54.1,50.3,50.9,46.5,40.0,83,76,58,28.02,27.82,2,-406,3,0.45
2013-4-29,69.1,59.3,52.4,51.7,48.3,45.3,84,68,47,27.91,27.82,6,-42,6,0.00
2013-4-30,77.5,64.0,52.7,54.7,48.2,44.5,81,59,33,28.02,27.85,2,-94,3,0.00
2013-5-1,69.9,62.6,57.1,48.0,45.6,40.4,68,55,40,28.11,28.02,4,-7,4,0.00
2013-5-2,70.8,61.4,56.1,50.2,45.8,42.0,67,57,45,28.11,28.02,3,-56,4,0.00
2013-5-3,68.1,60.5,55.3,44.4,38.8,29.5,64,46,26,28.05,27.94,3,-227,4,0.00
2013-5-4,59.4,54.6,48.2,40.0,33.9,27.0,56,46,37,27.94,27.85,5,1,6,0.00
2013-5-5,54.5,51.6,49.3,47.6,39.1,29.5,82,63,45,27.91,27.73,3,1,5,0.17
2013-5-6,64.0,56.3,52.7,54.6,49.1,45.8,89,77,64,27.79,27.67,3,0,4,0.41
2013-5-7,61.5,54.1,49.6,50.2,46.4,43.1,83,75,62,27.82,27.73,3,0,4,0.00
2013-5-8,61.8,56.9,53.6,55.0,52.4,48.3,90,85,76,27.91,27.76,4,0,6,0.13
2013-5-9,72.7,61.2,51.6,59.0,52.6,47.4,96,75,49,27.96,27.88,2,0,4,0.00
2013-5-10,75.4,63.3,52.5,58.1,53.0,45.9,83,70,46,27.96,27.82,4,0,8,0.04
2013-5-11,70.1,61.9,57.3,60.2,56.0,48.4,90,81,66,27.85,27.73,2,0,5,0.46
2013-5-12,60.7,53.7,47.7,48.0,34.9,25.0,78,51,31,27.94,27.79,5,1,6,0.04
2013-5-13,61.6,50.2,38.7,30.5,25.3,20.2,60,40,25,28.02,27.94,5,1,8,0.00
2013-5-14,71.6,56.0,39.0,42.6,32.9,23.2,55,42,32,28.05,27.91,4,1,8,0.00
2013-5-15,81.6,69.4,57.1,53.4,47.4,41.5,62,47,33,27.96,27.85,4,1,6,0.00
2013-5-16,76.2,66.1,55.3,51.6,48.2,44.1,70,53,40,27.94,27.88,3,0,5,0.00
2013-5-17,80.2,65.0,55.0,57.9,52.2,46.1,81,65,38,27.99,27.91,2,-21,6,0.83
2013-5-18,70.2,64.7,59.7,62.8,58.5,55.0,91,80,68,27.99,27.91,2,-28,2,0.08
2013-5-19,80.1,67.3,63.1,65.2,61.6,57.0,100,84,53,27.96,27.88,3,0,4,1.00
2013-5-20,75.1,65.8,59.9,66.2,61.8,58.3,100,88,67,28.02,27.91,2,0,5,0.87
2013-5-21,83.5,69.8,59.5,65.8,59.0,54.2,93,71,39,27.96,27.82,3,0,4,0.50
2013-5-22,80.2,66.4,60.1,62.9,58.7,54.6,88,77,51,27.88,27.79,6,0,6,0.50
2013-5-23,76.7,65.0,60.6,63.6,58.2,53.0,93,80,49,27.85,27.73,4,0,6,0.57
2013-5-24,63.4,57.1,50.5,53.0,41.5,30.8,82,58,35,28.08,27.82,4,2,7,0.09
2013-5-25,68.3,55.7,43.2,38.9,33.5,28.3,67,45,26,28.20,28.05,3,0,5,0.00
2013-5-26,70.3,61.1,53.6,43.3,39.4,33.8,61,45,35,28.14,28.05,4,0,5,0.00
2013-5-27,79.5,65.8,52.3,53.6,47.2,40.6,67,52,37,28.11,27.96,3,0,5,0.12
2013-5-28,81.3,69.5,58.0,59.6,53.6,49.8,83,59,36,28.08,27.96,3,0,5,0.00
2013-5-29,83.7,71.1,58.8,57.4,52.9,49.7,77,55,33,28.11,27.99,3,0,5,0.00
2013-5-30,85.2,72.0,59.2,57.0,52.3,48.8,73,52,33,28.14,27.99,2,0,3,0.00
2013-5-31,85.1,72.9,61.4,57.9,52.9,48.9,70,51,35,28.08,27.96,3,0,6,0.00
2013-6-1,87.1,74.1,63.5,59.7,54.4,50.2,73,52,29,27.99,27.85,4,0,4,0.00
2013-6-2,71.1,68.1,65.3,63.1,59.0,52.5,86,73,52,27.91,27.79,3,0,4,0.42
2013-6-3,75.4,68.5,64.9,65.3,59.8,52.9,92,75,52,27.91,27.79,3,0,4,0.12
2013-6-4,79.3,68.7,58.2,56.7,53.0,50.4,81,59,40,27.96,27.88,3,0,4,0.00
2013-6-5,82.8,71.1,62.6,61.1,54.9,50.5,70,57,40,27.96,27.85,3,0,4,0.00
2013-6-6,77.5,71.0,64.9,62.8,59.4,56.8,77,67,54,27.88,27.67,3,0,4,0.00
2013-6-7,74.1,69.0,65.6,64.2,60.7,54.4,86,75,57,27.76,27.61,4,0,5,0.13
2013-6-8,78.8,69.2,61.9,59.4,56.8,54.1,86,66,44,27.99,27.76,3,0,4,0.04
2013-6-9,82.7,70.4,62.1,61.1,57.5,54.8,80,65,40,28.02,27.91,3,0,4,0.12
2013-6-10,76.4,69.8,66.2,65.9,61.8,55.2,92,77,52,27.94,27.79,6,1,6,0.54
2013-6-11,78.2,69.6,63.6,60.9,58.9,56.2,89,71,49,27.91,27.79,5,1,6,0.21
2013-6-12,87.3,75.1,64.0,69.3,63.3,56.7,82,68,49,27.94,27.82,4,1,6,0.00
2013-6-13,79.8,72.6,64.0,67.3,62.9,53.8,79,72,65,27.85,27.64,6,1,6,0.08
2013-6-14,74.7,65.7,58.2,54.7,50.9,46.4,81,60,41,27.96,27.76,3,0,5,0.00
2013-6-15,79.0,67.0,55.3,56.7,50.8,46.6,77,58,40,28.02,27.94,2,0,3,0.00
2013-6-16,80.6,70.3,61.2,61.5,56.4,51.4,78,62,47,28.02,27.91,4,0,6,0.00
2013-6-17,81.6,72.5,65.7,65.3,61.8,59.1,82,70,51,27.94,27.85,3,0,5,0.00
2013-6-18,72.0,67.9,63.2,65.4,62.1,57.7,92,82,70,27.88,27.76,2,0,3,1.16
2013-6-19,77.8,67.5,59.8,62.8,58.5,54.8,91,74,50,28.02,27.85,2,0,3,0.00
2013-6-20,81.6,70.8,62.2,61.7,57.5,55.3,83,65,42,28.11,28.02,2,0,4,0.00
2013-6-21,83.1,72.8,63.5,60.9,56.0,51.4,78,58,36,28.14,28.05,2,0,4,0.00
2013-6-22,83.1,72.2,63.0,56.3,52.0,46.9,74,51,30,28.14,28.02,2,0,4,0.00
2013-6-23,84.9,73.2,62.8,59.6,55.4,51.8,73,55,34,28.11,28.02,3,0,3,0.00
2013-6-24,83.8,73.8,66.2,64.5,60.4,56.9,76,64,47,28.11,27.99,4,0,4,0.00
2013-6-25,81.0,72.2,66.4,67.1,62.8,59.8,82,72,57,28.05,27.94,3,0,4,0.25
2013-6-26,81.1,71.6,65.9,69.0,63.7,57.8,89,77,55,27.96,27.82,4,0,6,0.08
2013-6-27,77.1,69.3,65.1,69.0,64.4,61.0,91,85,74,27.85,27.70,3,1,6,0.58
2013-6-28,81.0,72.7,68.5,69.1,65.0,58.1,91,78,60,27.73,27.58,4,1,5,0.00
2013-6-29,80.6,72.2,66.4,63.7,58.8,51.6,87,65,40,27.67,27.55,4,1,6,0.00
2013-6-30,84.2,71.3,62.1,59.4,55.2,50.9,78,59,33,27.76,27.64,3,0,4,0.12
2013-7-1,80.6,71.2,65.1,63.1,60.2,57.5,84,69,46,27.88,27.70,3,0,4,0.05
2013-7-2,81.5,72.0,65.8,65.8,61.9,59.6,87,71,52,27.99,27.85,3,0,4,0.04
2013-7-3,71.5,67.8,64.0,69.2,63.5,59.8,93,86,71,28.08,27.99,0,0,0,2.95
2013-7-4,79.8,70.2,64.0,70.5,64.8,61.7,97,84,61,28.11,28.02,2,0,4,0.49
2013-7-5,84.8,73.9,66.3,66.2,62.7,55.6,91,70,48,28.08,28.02,2,0,4,0.05
2013-7-6,84.6,74.9,68.3,63.4,60.6,58.2,78,62,45,28.08,27.99,2,0,3,0.08
2013-7-7,76.6,70.9,68.2,68.2,64.6,61.0,88,81,70,28.05,27.99,4,0,6,0.12
2013-7-8,82.9,72.1,66.4,64.7,61.8,55.7,89,72,41,28.11,28.02,2,0,4,0.00
2013-7-9,85.7,74.8,66.9,66.3,62.5,59.3,81,67,46,28.08,27.96,2,0,4,0.00
2013-7-10,83.8,74.2,69.6,68.7,65.0,62.6,82,73,60,27.99,27.88,3,0,5,0.00
2013-7-11,77.5,72.2,69.4,67.9,65.9,64.1,89,81,68,27.91,27.79,2,0,3,0.25
2013-7-12,80.5,71.2,65.5,66.2,62.0,55.0,92,75,47,27.94,27.82,3,0,4,0.00
2013-7-13,80.7,72.1,64.9,61.1,58.6,56.8,76,63,47,28.02,27.91,2,0,3,0.00
2013-7-14,82.8,74.9,70.3,67.3,62.6,58.0,82,67,47,28.17,28.02,2,0,4,0.00
2013-7-15,87.0,76.2,67.5,63.0,59.2,54.1,77,57,37,28.23,28.14,1,0,2,0.00
2013-7-16,88.7,76.2,65.3,64.5,60.0,55.8,79,59,40,28.26,28.17,3,0,3,0.00
2013-7-17,87.1,75.3,68.9,69.2,63.8,58.6,83,69,47,28.23,28.11,3,0,3,0.37
2013-7-18,87.4,73.9,67.9,71.6,66.6,62.7,91,79,51,28.14,28.02,3,0,4,0.54
2013-7-19,83.7,73.6,67.5,71.7,67.4,64.4,93,82,63,28.05,27.94,3,0,5,0.30
2013-7-20,84.3,73.5,67.2,70.8,66.3,62.9,93,79,59,27.99,27.88,3,0,5,0.00
2013-7-21,78.0,72.0,67.7,69.8,65.3,62.6,91,80,69,27.96,27.91,2,0,4,0.00
2013-7-22,82.2,72.6,68.2,68.0,65.1,62.8,90,78,58,27.94,27.79,3,1,5,0.08
2013-7-23,82.3,73.8,68.7,67.2,64.2,59.3,90,74,47,27.85,27.76,4,1,5,0.04
2013-7-24,81.3,73.9,69.4,67.8,62.6,57.2,89,69,49,27.85,27.76,3,-106,4,0.00
2013-7-25,79.3,70.7,63.7,59.0,55.5,50.5,79,60,42,27.99,27.85,0,-999,0,0.00
2013-7-26,83.4,70.2,58.6,60.9,55.1,50.0,77,60,39,28.02,27.94,2,-810,3,0.08
2013-7-27,76.3,69.0,65.9,67.1,63.1,59.3,89,82,65,27.96,27.85,3,-52,5,1.21
2013-7-28,78.5,70.0,64.7,64.3,59.7,50.4,93,72,43,27.99,27.85,4,-254,6,0.00
2013-7-29,77.4,67.0,57.4,55.0,50.5,46.2,79,58,34,28.14,27.99,3,1,6,0.00
2013-7-30,78.4,67.4,58.8,57.9,53.3,48.8,74,61,43,28.14,28.08,3,0,4,0.00
2013-7-31,67.8,66.0,63.7,65.1,61.5,57.7,93,86,72,28.11,27.91,2,0,3,0.70
2013-8-1,80.9,71.8,66.2,68.0,63.7,59.4,97,78,52,27.94,27.88,3,0,4,0.04
2013-8-2,79.5,70.5,63.2,63.3,58.0,52.0,89,67,42,27.99,27.91,3,0,4,0.00
2013-8-3,80.4,71.5,64.5,62.8,59.4,56.0,82,67,46,27.99,27.91,4,1,5,0.00
2013-8-4,79.8,72.1,67.0,64.6,58.6,52.3,86,65,41,28.02,27.91,3,0,6,0.00
2013-8-5,81.3,70.3,61.4,58.7,54.5,51.3,77,59,39,28.02,27.91,4,-36,4,0.00
2013-8-6,81.1,72.2,65.0,61.9,58.3,52.6,77,63,45,27.96,27.91,3,-330,3,0.00
2013-8-7,79.9,71.7,68.0,67.9,64.1,60.8,89,77,61,27.99,27.94,2,-250,3,0.00
2013-8-8,78.5,72.5,68.0,69.5,66.6,64.8,93,82,67,27.96,27.94,3,-122,4,0.04
2013-8-9,82.3,73.6,68.9,70.2,67.1,64.5,92,81,64,28.02,27.94,3,-470,4,0.00
2013-8-10,78.5,71.4,69.1,73.7,68.7,66.4,96,91,83,28.05,27.99,2,-823,3,0.71
2013-8-11,80.7,72.8,68.7,70.4,67.7,65.2,94,84,66,28.08,27.99,4,-402,5,0.08
2013-8-12,79.0,72.8,67.5,70.3,67.2,62.7,92,83,69,28.02,27.94,3,-323,5,0.54
2013-8-13,75.7,69.3,65.8,70.0,66.0,62.7,94,89,80,27.94,27.79,2,-796,2,0.70
2013-8-14,72.9,65.2,58.9,62.8,53.9,46.7,90,69,44,28.02,27.88,3,-45,4,0.00
2013-8-15,75.1,63.9,55.5,54.5,49.6,45.1,69,60,46,28.02,27.96,2,-742,3,0.00
2013-8-16,78.4,66.8,57.7,56.1,51.2,48.8,72,58,39,28.05,27.99,3,-684,3,0.00
2013-8-17,73.7,65.6,59.4,56.1,53.0,48.9,76,64,52,28.08,28.02,3,-428,4,0.00
2013-8-18,78.0,68.1,62.6,64.1,60.0,56.0,89,76,57,28.11,28.02,3,-24,4,0.46
2013-8-19,77.1,69.2,65.3,64.8,62.7,60.9,91,80,62,28.11,27.99,3,0,3,0.08
2013-8-20,83.8,72.3,65.7,66.4,62.9,60.1,89,74,49,28.11,28.02,3,-10,3,0.00
2013-8-21,80.1,71.5,66.4,66.1,62.8,59.3,86,75,58,28.14,28.05,3,0,4,0.04
2013-8-22,81.4,72.2,64.8,67.3,62.3,58.6,91,72,51,28.11,27.96,3,0,4,0.00
2013-8-23,79.5,70.9,65.0,67.4,61.7,58.5,89,73,52,28.02,27.94,3,0,3,0.00
2013-8-24,80.1,70.2,62.6,59.7,54.1,48.1,78,59,37,28.23,28.02,4,1,4,0.00
2013-8-25,78.8,67.2,57.2,55.3,50.2,47.4,74,56,36,28.29,28.17,3,0,4,0.00
2013-8-26,78.8,67.8,57.0,60.3,54.7,48.0,75,64,50,28.23,28.05,3,-285,4,0.00
2013-8-27,78.6,70.4,63.0,66.1,61.4,54.6,83,73,64,28.08,27.96,4,-325,4,0.00
2013-8-28,83.3,74.1,67.5,69.2,64.5,61.2,90,73,52,27.99,27.91,4,-454,4,0.00
2013-8-29,86.5,76.7,71.1,68.4,63.9,59.7,84,66,43,27.94,27.91,3,-357,4,0.00
2013-8-30,85.1,75.2,67.8,65.3,61.8,57.6,79,64,42,27.96,27.88,3,-378,4,0.00
2013-8-31,74.8,70.5,67.3,70.6,66.0,60.5,93,86,71,27.91,27.82,3,-150,3,1.50
2013-9-1,74.9,68.7,66.2,70.5,65.9,63.2,97,91,80,27.88,27.79,3,-21,4,0.87
2013-9-2,79.9,72.4,66.9,70.1,66.3,62.0,96,82,63,27.88,27.79,3,-6,4,0.00
2013-9-3,78.0,69.7,63.1,67.3,62.0,54.0,92,78,54,27.96,27.79,3,0,3,0.04
2013-9-4,80.6,67.4,57.0,59.9,53.6,48.6,86,63,36,28.05,27.96,3,0,4,0.00
2013-9-5,80.3,66.8,56.1,57.5,52.0,48.0,80,61,40,28.08,28.02,3,-243,3,0.00
2013-9-6,81.1,68.1,58.0,60.0,54.0,49.8,80,62,40,28.11,28.02,2,-893,2,0.00
2013-9-7,80.7,69.1,58.8,60.8,55.3,51.3,82,63,42,28.02,27.94,3,-469,4,0.00
2013-9-8,80.4,70.1,62.1,64.9,58.5,54.1,82,68,46,27.96,27.91,2,0,4,0.00
2013-9-9,85.6,72.7,63.4,65.3,59.8,57.4,88,66,41,28.08,27.96,2,0,4,0.00
2013-9-10,86.2,74.1,65.3,63.4,60.3,57.6,82,64,40,28.14,28.05,5,-10,5,0.00
2013-9-11,81.3,72.9,68.2,66.6,63.7,61.2,82,73,60,28.14,28.02,3,0,6,0.00
2013-9-12,81.4,70.9,64.8,67.9,64.9,61.7,100,83,58,28.02,27.85,3,1,8,0.83
2013-9-13,72.5,65.6,57.9,66.4,55.6,42.3,100,74,40,27.91,27.79,5,1,6,0.05
2013-9-14,72.4,59.6,48.7,45.4,41.8,36.8,73,54,29,28.02,27.91,3,-28,4,0.00
2013-9-15,76.6,64.0,52.2,51.8,47.7,41.8,74,57,38,28.11,28.02,3,-16,4,0.00
2013-9-16,71.6,64.3,57.9,59.0,53.1,49.1,82,68,55,28.14,28.02,3,0,4,0.00
2013-9-17,73.1,63.4,55.9,50.9,48.1,45.9,71,58,45,28.17,28.11,3,-28,4,0.00
2013-9-18,68.4,61.4,55.8,58.0,50.7,45.8,83,68,54,28.14,28.05,2,-655,2,0.00
2013-9-19,68.9,64.6,62.8,65.4,61.1,58.2,93,89,84,28.08,27.99,3,-500,3,0.28
2013-9-20,79.7,69.0,61.2,65.7,61.2,58.9,93,78,51,27.99,27.85,4,-248,4,0.00
2013-9-21,67.1,64.1,60.2,62.7,60.0,57.0,91,86,78,27.85,27.67,3,-377,3,0.63
2013-9-22,69.7,60.4,52.4,57.1,51.0,46.1,90,73,49,27.88,27.73,2,-122,3,0.00
2013-9-23,74.6,60.6,49.3,53.9,47.7,41.8,80,64,41,27.96,27.88,3,-17,4,0.00
2013-9-24,75.1,62.4,52.8,55.8,49.4,44.2,80,64,42,27.99,27.85,2,-3,3,0.00
2013-9-25,66.6,62.5,59.2,59.7,54.9,49.6,81,76,70,27.85,27.79,1,0,2,0.00
2013-9-26,75.7,64.8,56.5,55.3,50.3,43.3,82,62,33,27.96,27.82,3,-195,4,0.00
2013-9-27,76.4,63.2,54.1,53.9,48.2,45.0,80,60,35,28.08,27.96,1,-960,1,0.00
2013-9-28,73.0,62.9,54.5,51.3,47.3,44.9,72,58,41,28.14,28.02,1,-974,1,0.00
2013-9-29,71.6,61.4,54.3,52.8,48.1,43.5,72,62,47,28.05,27.94,2,-873,2,0.00
2013-9-30,74.1,64.5,58.5,55.5,52.0,49.5,74,65,45,27.99,27.91,2,-360,2,0.00
2013-10-1,76.5,63.6,55.5,56.8,50.6,46.9,81,64,41,28.05,27.96,3,-670,3,0.00
2013-10-2,77.9,63.5,52.9,59.1,51.1,44.4,81,65,43,28.11,27.99,2,-753,2,0.00
2013-10-3,76.5,65.3,58.5,60.6,54.3,49.5,83,68,47,28.05,27.99,3,-867,3,0.00
2013-10-4,80.5,67.1,56.9,60.9,54.5,50.1,84,66,41,28.11,28.02,1,-732,1,0.00
2013-10-5,83.1,68.0,56.8,60.8,54.5,49.4,83,64,39,28.08,27.96,3,-534,3,0.00
2013-10-6,82.1,69.3,58.6,59.7,53.6,49.8,82,60,40,27.96,27.79,3,-622,3,0.00
2013-10-7,70.7,61.8,52.6,57.9,47.8,38.2,79,61,41,27.99,27.70,1,-968,1,0.37
2013-10-8,68.5,56.7,46.9,43.1,38.8,35.4,65,52,38,28.11,27.99,0,-944,0,0.00
2013-10-9,72.2,58.3,47.9,40.5,36.7,32.1,61,46,28,28.14,28.02,0,-964,0,0.00
2013-10-10,67.9,55.2,43.8,45.4,38.2,29.2,66,53,43,28.05,27.96,0,-889,0,0.00
2013-10-11,74.0,60.5,48.0,49.2,42.6,38.9,78,54,31,27.99,27.91,3,-363,4,0.00
2013-10-12,70.2,63.6,59.5,55.3,52.7,48.2,74,68,58,28.02,27.91,2,0,3,0.00
2013-10-13,70.8,63.6,59.6,58.8,55.9,53.6,83,76,63,28.11,28.02,2,-252,2,0.00
2013-10-14,73.7,64.0,57.7,56.7,52.9,49.6,80,68,50,28.14,28.02,1,-832,2,0.00
2013-10-15,72.1,62.1,53.8,50.9,48.2,44.4,75,61,45,28.08,27.94,3,-97,3,0.00
2013-10-16,65.5,60.3,53.7,53.4,48.3,43.2,76,65,56,27.96,27.88,2,-370,2,0.00
2013-10-17,63.3,60.4,55.2,61.0,55.7,47.1,92,84,74,27.88,27.73,0,-668,0,0.13
2013-10-18,64.2,53.5,43.1,47.4,40.8,35.2,76,63,43,27.96,27.88,1,-854,1,0.00
2013-10-19,60.2,53.8,48.9,48.0,43.0,35.9,80,67,53,27.88,27.79,4,-899,4,0.00
2013-10-20,64.0,48.5,36.4,35.8,30.2,25.7,70,51,27,27.99,27.88,1,-552,1,0.00
2013-10-21,67.1,50.9,38.7,39.7,32.4,25.1,66,50,32,28.02,27.91,4,0,6,0.00
2013-10-22,62.3,53.6,46.9,43.8,39.7,33.3,71,60,47,27.91,27.73,5,-10,6,0.00
2013-10-23,52.3,46.6,38.1,43.8,34.0,24.6,76,62,46,27.94,27.67,5,-165,9,0.08
2013-10-24,48.6,40.1,34.3,30.5,26.5,23.5,69,59,43,28.05,27.94,6,1,6,0.00
2013-10-25,40.8,36.8,31.6,28.7,22.4,17.8,64,56,47,28.26,28.05,4,-3,4,0.00
2013-10-26,54.8,40.4,26.1,27.4,20.7,15.1,62,46,30,28.20,27.96,4,1,5,0.00
2013-10-27,65.1,52.7,41.3,35.9,29.4,23.1,52,41,33,28.02,27.94,4,1,6,0.00
2013-10-28,60.4,54.7,50.5,50.3,44.5,33.8,79,69,53,28.14,28.02,2,-208,3,0.04
2013-10-29,67.9,59.1,54.7,50.6,47.3,42.8,82,66,44,28.20,28.11,0,-928,0,0.00
2013-10-30,67.9,59.5,54.6,54.7,50.1,44.8,84,71,57,28.14,28.05,0,-904,0,0.29
2013-10-31,67.3,61.2,54.9,55.8,49.0,45.6,86,66,48,28.05,27.61,2,-881,2,0.00
2013-11-1,71.6,63.9,52.6,54.9,46.5,34.9,82,55,33,27.70,27.58,1,-954,1,0.33
2013-11-2,61.6,51.1,44.7,39.4,32.7,25.2,68,50,36,27.94,27.67,0,-989,0,0.00
2013-11-3,54.9,45.6,38.8,30.4,26.7,21.8,60,48,37,28.23,27.94,0,-999,0,0.00
2013-11-4,58.6,46.7,36.2,27.7,22.8,19.7,53,40,29,28.32,28.20,0,-999,0,0.00
2013-11-5,62.7,49.6,40.6,30.6,23.4,19.3,49,36,21,28.35,28.23,0,-999,0,0.00
2013-11-6,73.2,56.9,43.8,45.6,37.6,28.3,71,50,32,28.23,27.96,2,-668,3,0.00
2013-11-7,55.6,49.6,39.7,49.9,35.9,21.2,81,60,44,28.08,27.91,3,-588,3,0.25
2013-11-8,52.0,40.6,32.5,24.2,19.2,14.7,53,43,28,28.20,28.08,2,-940,2,0.00
2013-11-9,54.4,41.5,29.4,25.0,18.8,14.7,52,40,26,28.17,28.05,6,-464,6,0.00
2013-11-10,62.4,47.7,37.6,32.4,21.6,13.2,50,37,21,28.17,28.05,6,-640,6,0.00
2013-11-11,64.8,45.6,30.0,24.7,16.7,11.8,45,32,17,28.17,28.02,0,-999,0,0.00
2013-11-12,47.3,37.5,28.6,24.8,17.0,11.1,50,42,33,28.32,27.99,5,-426,6,0.00
2013-11-13,43.1,31.7,24.5,16.4,10.8,7.7,45,39,29,28.38,28.26,2,-859,2,0.00
2013-11-14,55.8,36.0,22.5,19.2,11.8,7.4,48,37,20,28.29,28.14,6,-845,6,0.00
2013-11-15,52.7,40.7,28.0,39.1,22.8,10.0,74,49,28,28.17,28.05,2,-308,3,0.17
2013-11-16,66.9,52.4,44.4,49.1,41.9,37.6,82,68,45,28.11,28.02,3,0,3,0.00
2013-11-17,67.6,56.6,46.6,56.3,47.1,38.7,88,72,49,28.02,27.76,3,-35,4,0.16
2013-11-18,62.9,55.6,44.5,56.3,36.5,18.8,90,52,26,27.99,27.76,6,-176,6,0.13
2013-11-19,52.1,42.7,35.8,21.4,17.9,14.9,43,37,27,28.11,27.96,3,1,4,0.00
2013-11-20,54.9,43.2,35.1,21.6,17.5,14.2,44,36,25,28.23,28.08,2,-93,3,0.00
2013-11-21,64.9,49.4,37.0,39.9,29.7,16.2,64,47,37,28.29,28.17,2,-693,2,0.00
2013-11-22,59.3,54.3,51.0,50.6,46.7,39.2,87,76,64,28.20,28.02,4,-496,4,0.16
2013-11-23,52.8,44.1,31.2,47.2,29.9,11.1,81,58,39,28.14,28.02,4,-964,4,0.00
2013-11-24,35.1,27.4,21.9,11.7,5.6,1.3,42,36,28,28.32,28.14,3,-725,4,0.04
2013-11-25,38.3,30.5,21.5,14.5,6.4,1.8,46,34,29,28.29,28.08,0,-999,0,0.00
2013-11-26,44.4,39.9,32.7,40.7,32.2,14.7,87,75,47,28.08,27.58,0,-999,0,2.12
2013-11-27,39.4,29.9,23.7,33.4,20.2,9.5,79,65,49,28.08,27.61,0,-999,0,0.04
2013-11-28,39.9,27.8,17.8,17.2,11.3,5.5,55,47,36,28.29,28.08,0,-999,0,0.08
2013-11-29,48.0,32.9,22.1,22.5,15.3,9.8,56,47,34,28.38,28.29,2,-846,2,0.00
2013-11-30,50.5,37.9,30.6,23.7,17.0,13.2,47,42,32,28.38,28.14,3,-333,3,0.04
2013-12-1,54.5,39.5,26.4,27.8,19.9,12.0,52,45,32,28.14,27.91,4,1,5,0.00
2013-12-2,48.6,43.9,39.7,31.7,27.8,22.8,61,53,49,27.91,27.70,3,0,4,0.00
2013-12-3,58.6,48.5,42.3,39.7,34.4,29.8,66,58,48,27.82,27.73,3,0,4,0.00
2013-12-4,69.0,53.3,43.0,46.4,39.6,32.1,76,61,40,27.91,27.79,3,0,5,0.00
2013-12-5,67.1,56.6,46.8,54.9,46.1,37.6,83,68,53,27.96,27.88,3,-99,3,0.05
2013-12-6,59.3,54.0,44.0,54.8,49.9,38.2,93,86,79,27.99,27.79,4,-737,5,0.87
2013-12-7,43.9,38.6,34.2,38.1,30.4,25.7,80,72,65,28.26,27.99,4,-275,4,0.00
2013-12-8,39.9,37.4,35.1,34.0,30.5,27.0,86,76,70,28.20,27.96,4,-546,4,0.45
2013-12-9,46.9,43.4,37.9,45.1,40.8,34.0,93,90,86,28.02,27.91,3,-174,4,0.21
2013-12-10,43.2,37.2,29.0,40.8,29.3,16.8,91,73,53,28.17,27.85,6,-302,6,0.25
2013-12-11,46.4,33.3,22.8,21.6,16.5,12.6,63,50,35,28.26,28.14,4,-17,6,0.00
2013-12-12,38.5,31.4,26.3,14.7,11.0,6.3,48,40,31,28.26,28.17,4,2,7,0.00
2013-12-13,47.8,33.6,22.5,16.7,12.0,7.3,48,40,28,28.20,28.08,4,1,5,0.00
2013-12-14,41.0,39.4,37.2,33.5,24.7,14.5,76,57,37,28.08,27.67,3,0,4,0.50
2013-12-15,42.4,35.9,31.6,36.7,25.5,20.0,80,66,59,27.99,27.64,6,-72,6,0.04
2013-12-16,46.8,35.6,30.0,27.5,22.8,19.5,69,59,45,28.05,27.96,6,-16,6,0.00
2013-12-17,53.2,42.0,36.0,33.5,25.8,18.5,81,53,37,28.02,27.82,6,2,8,0.08
2013-12-18,43.6,34.5,28.1,19.3,15.3,12.4,51,44,33,28.14,28.02,6,2,6,0.00
2013-12-19,54.6,38.1,26.2,22.0,17.4,12.5,52,43,27,28.14,28.02,3,1,4,0.00
2013-12-20,61.5,44.8,33.5,31.1,24.0,17.9,54,44,28,28.05,27.96,3,0,4,0.00
2013-12-21,67.6,58.0,46.0,50.4,40.7,28.5,59,52,47,27.96,27.79,3,0,4,0.00
2013-12-22,68.4,58.3,52.3,50.6,49.0,47.8,88,73,49,27.96,27.79,6,-105,13,1.29
2013-12-23,53.8,45.4,34.6,50.9,39.0,22.3,90,79,60,28.14,27.91,3,-153,3,0.37
2013-12-24,34.9,30.8,22.5,22.8,16.0,7.6,64,52,41,28.26,28.11,5,2,6,0.00
2013-12-25,44.0,30.0,20.4,15.2,9.8,4.5,49,41,29,28.26,28.11,4,1,6,0.00
2013-12-26,46.0,33.3,24.4,21.6,15.3,10.7,53,46,36,28.20,28.11,4,1,6,0.00
2013-12-27,50.5,34.4,23.9,18.7,13.9,10.2,52,42,27,28.29,28.20,3,1,4,0.00
2013-12-28,43.7,34.8,25.6,30.9,18.8,11.3,71,50,42,28.26,27.96,2,0,3,0.37
2013-12-29,44.6,42.7,39.3,39.9,37.2,30.7,86,81,71,27.96,27.70,5,-52,5,1.08
2013-12-30,41.0,38.1,34.9,35.7,30.8,26.8,82,75,70,28.02,27.88,3,-80,4,0.00
2013-12-31,42.1,34.7,28.8,27.3,21.2,15.2,73,58,41,28.20,28.02,0,-999,0,0.00
2014-1-1,53.5,35.6,26.1,24.3,17.0,14.0,57,47,27,28.20,27.96,2,-863,2,0.00
2014-1-2,39.4,33.3,20.8,32.0,22.1,7.5,75,62,49,27.96,27.58,0,-999,0,0.21